createdAt,value
2018-09-17T00:00:14.574Z,61.80
2018-09-17T00:02:17.726Z,62.00
2018-09-17T00:04:20.805Z,62.80
2018-09-17T00:06:23.859Z,62.60
2018-09-17T00:08:26.874Z,62.60
2018-09-17T00:10:30.039Z,62.10
2018-09-17T00:12:33.087Z,61.50
2018-09-17T00:14:36.134Z,61.40
2018-09-17T00:16:41.274Z,62.00
2018-09-17T00:18:44.391Z,61.00
2018-09-17T00:20:47.423Z,61.50
2018-09-17T00:22:50.514Z,61.70
2018-09-17T00:24:53.778Z,63.40
2018-09-17T00:26:56.843Z,62.80
2018-09-17T00:29:00.039Z,62.70
2018-09-17T00:31:03.252Z,61.90
2018-09-17T00:33:06.399Z,62.80
2018-09-17T00:35:09.463Z,63.30
2018-09-17T00:37:12.459Z,63.40
2018-09-17T00:39:15.496Z,63.80
2018-09-17T00:41:18.602Z,63.20
2018-09-17T00:43:21.807Z,62.60
2018-09-17T00:45:24.914Z,63.60
2018-09-17T00:47:27.964Z,62.70
2018-09-17T00:49:30.993Z,63.10
2018-09-17T00:51:34.097Z,64.80
2018-09-17T00:53:38.683Z,65.70
2018-09-17T00:55:41.720Z,62.90
2018-09-17T00:57:44.750Z,62.70
2018-09-17T00:59:47.758Z,63.60
2018-09-17T01:01:50.757Z,64.20
2018-09-17T01:03:53.719Z,63.30
2018-09-17T01:05:56.742Z,64.30
2018-09-17T01:08:00.040Z,64.90
2018-09-17T01:10:03.183Z,64.40
2018-09-17T01:12:06.146Z,63.10
2018-09-17T01:14:10.387Z,63.00
2018-09-17T01:16:13.445Z,63.10
2018-09-17T01:18:16.367Z,62.80
2018-09-17T01:20:19.326Z,63.40
2018-09-17T01:22:22.325Z,62.40
2018-09-17T01:24:25.326Z,62.20
2018-09-17T01:26:28.279Z,62.50
2018-09-17T01:28:31.260Z,62.90
2018-09-17T01:30:34.208Z,62.90
2018-09-17T01:32:38.594Z,63.40
2018-09-17T01:34:41.535Z,63.00
2018-09-17T01:36:44.490Z,63.40
2018-09-17T01:38:47.480Z,63.70
2018-09-17T01:40:50.667Z,63.50
2018-09-17T01:42:53.702Z,64.20
2018-09-17T01:44:56.828Z,63.20
2018-09-17T01:46:59.870Z,64.20
2018-09-17T01:49:02.952Z,64.90
2018-09-17T01:51:06.083Z,65.30
2018-09-17T01:53:10.417Z,64.00
2018-09-17T01:55:13.543Z,64.20
2018-09-17T01:57:16.556Z,64.70
2018-09-17T01:59:19.624Z,64.10
2018-09-17T02:01:22.636Z,64.50
2018-09-17T02:03:25.734Z,65.80
2018-09-17T02:05:28.882Z,66.80
2018-09-17T02:07:31.941Z,67.70
2018-09-17T02:09:38.675Z,67.50
2018-09-17T02:11:41.754Z,67.70
2018-09-17T02:13:44.939Z,66.30
2018-09-17T02:15:48.338Z,65.60
2018-09-17T02:17:51.382Z,65.20
2018-09-17T02:19:54.474Z,65.50
2018-09-17T02:21:57.538Z,64.80
2018-09-17T02:24:00.547Z,64.70
2018-09-17T02:26:03.655Z,65.70
2018-09-17T02:28:08.399Z,65.40
2018-09-17T02:30:12.029Z,64.20
2018-09-17T02:32:15.113Z,64.70
2018-09-17T02:34:18.167Z,64.80
2018-09-17T02:36:21.318Z,65.50
2018-09-17T02:38:24.351Z,65.80
2018-09-17T02:40:27.454Z,65.00
2018-09-17T02:42:30.534Z,64.70
2018-09-17T02:44:33.580Z,65.00
2018-09-17T02:46:38.025Z,64.40
2018-09-17T02:48:41.031Z,66.30
2018-09-17T02:50:44.084Z,66.50
2018-09-17T02:52:47.123Z,65.70
2018-09-17T02:54:50.230Z,66.80
2018-09-17T02:56:53.210Z,67.10
2018-09-17T02:58:56.183Z,67.20
2018-09-17T03:00:59.306Z,67.30
2018-09-17T03:03:02.323Z,66.90
2018-09-17T03:05:05.453Z,66.60
2018-09-17T03:07:10.182Z,66.90
2018-09-17T03:09:13.497Z,65.80
2018-09-17T03:11:16.510Z,65.90
2018-09-17T03:13:19.480Z,66.80
2018-09-17T03:15:39.944Z,66.50
2018-09-17T03:17:42.910Z,65.50
2018-09-17T03:19:46.300Z,66.20
2018-09-17T03:21:49.774Z,65.30
2018-09-17T03:23:53.023Z,65.40
2018-09-17T03:25:56.135Z,66.10
2018-09-17T03:27:59.097Z,66.40
2018-09-17T03:30:02.227Z,66.20
2018-09-17T03:32:05.278Z,66.20
2018-09-17T03:34:09.925Z,66.30
2018-09-17T03:36:12.948Z,66.20
2018-09-17T03:38:34.345Z,65.80
2018-09-17T03:40:39.224Z,65.80
2018-09-17T03:42:42.319Z,68.40
2018-09-17T03:44:45.393Z,68.40
2018-09-17T03:46:48.430Z,68.10
2018-09-17T03:48:51.464Z,68.20
2018-09-17T03:50:54.618Z,67.70
2018-09-17T03:52:57.667Z,69.00
2018-09-17T03:55:01.585Z,66.30
2018-09-17T03:57:04.665Z,67.70
2018-09-17T03:59:09.110Z,67.30
2018-09-17T04:01:12.110Z,68.90
2018-09-17T04:03:15.343Z,67.30
2018-09-17T04:05:18.315Z,67.10
2018-09-17T04:07:21.327Z,67.00
2018-09-17T04:09:24.374Z,66.40
2018-09-17T04:11:27.761Z,66.40
2018-09-17T04:13:30.728Z,65.80
2018-09-17T04:15:33.724Z,67.50
2018-09-17T04:17:38.388Z,67.10
2018-09-17T04:19:41.523Z,67.50
2018-09-17T04:21:44.556Z,67.60
2018-09-17T04:23:48.046Z,66.60
2018-09-17T04:25:51.112Z,66.70
2018-09-17T04:27:54.417Z,66.10
2018-09-17T04:29:57.473Z,67.00
2018-09-17T04:32:00.523Z,66.50
2018-09-17T04:34:03.856Z,67.30
2018-09-17T04:36:09.135Z,66.70
2018-09-17T04:38:12.204Z,66.10
2018-09-17T04:40:15.458Z,66.70
2018-09-17T04:42:18.516Z,68.60
2018-09-17T04:44:21.558Z,66.90
2018-09-17T04:46:24.603Z,67.00
2018-09-17T04:48:27.943Z,67.70
2018-09-17T04:50:31.362Z,66.60
2018-09-17T04:52:34.410Z,67.70
2018-09-17T04:54:39.096Z,67.80
2018-09-17T04:56:42.528Z,67.40
2018-09-17T04:58:45.582Z,68.10
2018-09-17T05:00:48.987Z,66.50
2018-09-17T05:02:52.253Z,66.80
2018-09-17T05:04:55.483Z,66.70
2018-09-17T05:06:58.539Z,66.20
2018-09-17T05:09:01.735Z,66.60
2018-09-17T05:11:05.234Z,66.60
2018-09-17T05:13:09.891Z,66.90
2018-09-17T05:15:12.922Z,66.80
2018-09-17T05:17:16.054Z,66.30
2018-09-17T05:19:19.181Z,66.30
2018-09-17T05:21:22.391Z,68.10
2018-09-17T05:23:25.473Z,66.50
2018-09-17T05:25:28.585Z,67.60
2018-09-17T05:27:31.743Z,68.50
2018-09-17T05:29:34.738Z,68.20
2018-09-17T05:31:39.658Z,69.50
2018-09-17T05:33:42.711Z,68.80
2018-09-17T05:35:45.832Z,71.10
2018-09-17T05:37:48.878Z,71.50
2018-09-17T05:39:51.882Z,69.80
2018-09-17T05:41:54.918Z,70.10
2018-09-17T05:43:58.130Z,70.40
2018-09-17T05:46:01.105Z,70.20
2018-09-17T05:48:04.115Z,71.50
2018-09-17T05:50:08.898Z,71.50
2018-09-17T05:52:11.939Z,71.90
2018-09-17T05:54:14.942Z,71.30
2018-09-17T05:56:18.441Z,71.00
2018-09-17T05:58:21.387Z,71.10
2018-09-17T06:00:24.424Z,70.90
2018-09-17T06:02:27.430Z,71.50
2018-09-17T06:04:30.412Z,70.80
2018-09-17T06:06:33.452Z,71.10
2018-09-17T06:08:38.148Z,71.50
2018-09-17T06:10:41.178Z,71.70
2018-09-17T06:12:45.954Z,71.50
2018-09-17T06:14:49.162Z,71.40
2018-09-17T06:16:52.177Z,70.30
2018-09-17T06:18:55.198Z,69.80
2018-09-17T06:20:58.202Z,69.70
2018-09-17T06:23:01.167Z,69.70
2018-09-17T06:25:04.375Z,69.30
2018-09-17T06:27:08.739Z,69.40
2018-09-17T06:29:11.896Z,69.60
2018-09-17T06:31:16.772Z,69.70
2018-09-17T06:33:19.948Z,69.70
2018-09-17T06:35:22.936Z,68.30
2018-09-17T06:37:26.002Z,67.60
2018-09-17T06:39:28.952Z,66.50
2018-09-17T06:41:32.037Z,66.60
2018-09-17T06:43:35.010Z,66.30
2018-09-17T06:45:39.714Z,65.80
2018-09-17T06:47:42.799Z,65.90
2018-09-17T06:49:46.072Z,65.50
2018-09-17T06:51:49.414Z,66.40
2018-09-17T06:53:52.441Z,66.90
2018-09-17T06:55:55.606Z,67.00
2018-09-17T06:57:58.701Z,67.90
2018-09-17T07:00:02.831Z,67.50
2018-09-17T07:02:06.407Z,66.50
2018-09-17T07:04:10.664Z,66.10
2018-09-17T07:06:13.754Z,63.30
2018-09-17T07:08:16.884Z,65.00
2018-09-17T07:10:19.968Z,64.20
2018-09-17T07:12:23.114Z,62.10
2018-09-17T07:14:26.256Z,60.60
2018-09-17T07:16:29.275Z,59.80
2018-09-17T07:18:32.355Z,60.40
2018-09-17T07:20:35.376Z,58.30
2018-09-17T07:22:38.997Z,58.30
2018-09-17T07:24:42.287Z,57.10
2018-09-17T07:26:45.669Z,57.40
2018-09-17T07:28:48.787Z,55.50
2018-09-17T07:30:51.847Z,55.90
2018-09-17T07:32:55.243Z,53.70
2018-09-17T07:34:58.243Z,54.10
2018-09-17T07:37:02.394Z,54.30
2018-09-17T07:39:10.044Z,52.20
2018-09-17T07:41:13.036Z,53.70
2018-09-17T07:43:16.014Z,52.20
2018-09-17T07:45:19.110Z,52.60
2018-09-17T07:47:22.126Z,51.40
2018-09-17T07:49:25.186Z,50.10
2018-09-17T07:51:28.202Z,49.60
2018-09-17T07:53:31.202Z,49.00
2018-09-17T07:55:34.213Z,50.40
2018-09-17T07:57:38.785Z,49.00
2018-09-17T07:59:41.807Z,49.30
2018-09-17T08:01:45.422Z,49.50
2018-09-17T08:03:48.459Z,48.30
2018-09-17T08:05:51.467Z,47.10
2018-09-17T08:07:54.829Z,47.50
2018-09-17T08:09:57.958Z,48.50
2018-09-17T08:12:01.007Z,48.50
2018-09-17T08:14:04.056Z,48.50
2018-09-17T08:16:08.706Z,47.20
2018-09-17T08:18:11.853Z,45.10
2018-09-17T08:20:14.964Z,44.60
2018-09-17T08:22:18.100Z,46.40
2018-09-17T08:24:21.104Z,46.60
2018-09-17T08:26:24.060Z,45.30
2018-09-17T08:28:27.219Z,42.70
2018-09-17T08:30:30.278Z,45.30
2018-09-17T08:32:33.639Z,43.00
2018-09-17T08:34:38.696Z,43.50
2018-09-17T08:36:41.826Z,43.80
2018-09-17T08:38:44.843Z,44.10
2018-09-17T08:40:47.894Z,45.10
2018-09-17T08:42:50.868Z,45.40
2018-09-17T08:44:53.987Z,45.10
2018-09-17T08:46:57.007Z,42.50
2018-09-17T08:49:00.214Z,43.70
2018-09-17T08:51:03.313Z,43.20
2018-09-17T08:53:08.237Z,42.10
2018-09-17T08:55:15.839Z,39.80
2018-09-17T08:57:24.592Z,39.50
2018-09-17T08:59:33.536Z,40.40
2018-09-17T09:01:42.223Z,40.80
2018-09-17T09:03:50.912Z,40.20
2018-09-17T09:05:59.691Z,40.70
2018-09-17T09:08:02.797Z,40.10
2018-09-17T09:10:11.690Z,40.60
2018-09-17T09:12:24.927Z,37.20
2018-09-17T09:14:38.263Z,38.80
2018-09-17T09:16:41.408Z,39.40
2018-09-17T09:18:44.751Z,39.30
2018-09-17T09:20:47.897Z,38.80
2018-09-17T09:22:51.257Z,39.40
2018-09-17T09:24:54.285Z,38.30
2018-09-17T09:26:57.335Z,38.50
2018-09-17T09:29:00.452Z,39.10
2018-09-17T09:31:03.767Z,37.50
2018-09-17T09:33:08.586Z,35.50
2018-09-17T09:35:11.941Z,34.80
2018-09-17T09:37:14.992Z,35.70
2018-09-17T09:39:18.097Z,36.10
2018-09-17T09:41:21.231Z,34.20
2018-09-17T09:43:24.296Z,36.60
2018-09-17T09:45:27.301Z,34.30
2018-09-17T09:47:30.356Z,35.20
2018-09-17T09:49:33.402Z,34.00
2018-09-17T09:51:37.841Z,33.70
2018-09-17T09:53:40.877Z,33.30
2018-09-17T09:55:43.941Z,34.00
2018-09-17T09:57:46.987Z,33.60
2018-09-17T09:59:50.179Z,32.90
2018-09-17T10:01:58.286Z,34.70
2018-09-17T10:04:09.067Z,32.80
2018-09-17T10:06:13.831Z,33.40
2018-09-17T10:08:17.265Z,32.50
2018-09-17T10:10:26.042Z,32.70
2018-09-17T10:12:34.702Z,32.00
2018-09-17T10:14:45.192Z,31.10
2018-09-17T10:16:53.835Z,32.70
2018-09-17T10:19:02.654Z,32.30
2018-09-17T10:21:05.586Z,31.40
2018-09-17T10:23:09.935Z,32.20
2018-09-17T10:25:13.251Z,32.20
2018-09-17T10:27:17.165Z,33.60
2018-09-17T10:29:20.250Z,32.70
2018-09-17T10:31:23.262Z,31.80
2018-09-17T10:33:26.472Z,31.50
2018-09-17T10:35:29.538Z,30.40
2018-09-17T10:37:32.542Z,31.80
2018-09-17T10:39:36.296Z,31.60
2018-09-17T10:41:39.706Z,31.00
2018-09-17T10:43:42.811Z,30.70
2018-09-17T10:45:46.070Z,29.30
2018-09-17T10:47:49.268Z,29.00
2018-09-17T10:49:52.286Z,29.90
2018-09-17T10:51:55.439Z,29.80
2018-09-17T10:53:58.622Z,28.40
2018-09-17T10:56:01.829Z,29.40
2018-09-17T10:58:05.038Z,28.20
2018-09-17T11:00:10.319Z,28.60
2018-09-17T11:02:13.515Z,27.80
2018-09-17T11:04:16.592Z,27.00
2018-09-17T11:06:19.655Z,27.80
2018-09-17T11:08:23.747Z,27.60
2018-09-17T11:10:26.947Z,28.30
2018-09-17T11:12:30.105Z,28.40
2018-09-17T11:14:33.289Z,28.50
2018-09-17T11:16:36.287Z,29.20
2018-09-17T11:18:39.609Z,29.20
2018-09-17T11:20:42.856Z,27.80
2018-09-17T11:22:45.908Z,27.40
2018-09-17T11:24:49.038Z,29.20
2018-09-17T11:26:52.238Z,29.20
2018-09-17T11:28:55.306Z,29.00
2018-09-17T11:30:58.447Z,28.50
2018-09-17T11:33:01.678Z,29.00
2018-09-17T11:35:05.226Z,28.40
2018-09-17T11:37:10.275Z,28.60
2018-09-17T11:39:13.370Z,28.40
2018-09-17T11:41:16.606Z,27.80
2018-09-17T11:43:20.730Z,26.80
2018-09-17T11:45:23.763Z,26.30
2018-09-17T11:47:27.009Z,27.60
2018-09-17T11:49:30.159Z,27.50
2018-09-17T11:51:33.349Z,26.30
2018-09-17T11:53:40.735Z,28.30
2018-09-17T11:55:43.771Z,26.90
2018-09-17T11:57:46.936Z,25.50
2018-09-17T11:59:50.126Z,26.10
2018-09-17T12:01:58.881Z,24.60
2018-09-17T12:04:07.824Z,25.00
2018-09-17T12:06:10.934Z,24.50
2018-09-17T12:08:16.379Z,25.70
2018-09-17T12:10:19.404Z,25.20
2018-09-17T12:12:22.523Z,24.40
2018-09-17T12:14:25.795Z,26.00
2018-09-17T12:16:28.885Z,24.20
2018-09-17T12:18:32.024Z,24.70
2018-09-17T12:20:35.598Z,24.80
2018-09-17T12:22:40.705Z,23.40
2018-09-17T12:24:43.923Z,23.90
2018-09-17T12:26:46.975Z,23.80
2018-09-17T12:28:50.053Z,23.70
2018-09-17T12:30:53.076Z,24.70
2018-09-17T12:32:56.275Z,23.80
2018-09-17T12:34:59.447Z,24.50
2018-09-17T12:37:02.482Z,25.00
2018-09-17T12:39:08.214Z,24.90
2018-09-17T12:41:11.241Z,24.70
2018-09-17T12:43:14.997Z,24.50
2018-09-17T12:45:18.034Z,22.90
2018-09-17T12:47:21.080Z,22.80
2018-09-17T12:49:24.441Z,23.50
2018-09-17T12:51:27.603Z,23.90
2018-09-17T12:53:30.779Z,23.70
2018-09-17T12:55:34.090Z,22.30
2018-09-17T12:57:38.991Z,22.10
2018-09-17T12:59:41.976Z,22.40
2018-09-17T13:01:45.043Z,22.30
2018-09-17T13:03:48.262Z,23.40
2018-09-17T13:05:51.291Z,23.40
2018-09-17T13:07:54.609Z,22.70
2018-09-17T13:09:57.630Z,22.80
2018-09-17T13:12:00.668Z,23.60
2018-09-17T13:14:03.943Z,23.30
2018-09-17T13:16:09.262Z,24.50
2018-09-17T13:18:12.369Z,23.20
2018-09-17T13:20:15.482Z,23.80
2018-09-17T13:22:18.746Z,23.60
2018-09-17T13:24:21.771Z,24.00
2018-09-17T13:26:24.805Z,23.90
2018-09-17T13:28:27.900Z,24.60
2018-09-17T13:30:30.910Z,24.90
2018-09-17T13:32:34.068Z,25.10
2018-09-17T13:34:38.815Z,24.40
2018-09-17T13:36:41.861Z,25.00
2018-09-17T13:38:45.027Z,25.30
2018-09-17T13:40:48.192Z,24.40
2018-09-17T13:42:59.037Z,24.20
2018-09-17T13:45:02.179Z,25.60
2018-09-17T13:47:05.307Z,25.50
2018-09-17T13:49:09.907Z,25.40
2018-09-17T13:51:12.965Z,23.70
2018-09-17T13:53:16.097Z,23.40
2018-09-17T13:55:19.263Z,23.40
2018-09-17T13:57:22.287Z,24.10
2018-09-17T13:59:25.618Z,24.20
2018-09-17T14:01:28.721Z,25.00
2018-09-17T14:03:31.863Z,26.10
2018-09-17T14:05:34.902Z,24.30
2018-09-17T14:07:39.367Z,24.80
2018-09-17T14:09:42.542Z,23.50
2018-09-17T14:11:46.016Z,24.20
2018-09-17T14:13:49.301Z,23.20
2018-09-17T14:15:58.013Z,24.00
2018-09-17T14:18:01.332Z,22.60
2018-09-17T14:20:04.412Z,22.80
2018-09-17T14:22:07.974Z,22.90
2018-09-17T14:24:11.545Z,23.50
2018-09-17T14:26:14.886Z,24.00
2018-09-17T14:28:18.191Z,23.70
2018-09-17T14:30:21.410Z,24.00
2018-09-17T14:32:30.430Z,24.60
2018-09-17T14:34:33.609Z,24.80
2018-09-17T14:36:36.677Z,24.90
2018-09-17T14:38:39.725Z,25.00
2018-09-17T14:40:42.795Z,25.60
2018-09-17T14:42:45.868Z,24.40
2018-09-17T14:44:49.076Z,24.90
2018-09-17T14:46:52.401Z,25.50
2018-09-17T14:48:56.025Z,24.80
2018-09-17T14:50:59.111Z,25.00
2018-09-17T14:53:02.148Z,24.90
2018-09-17T14:55:05.594Z,24.80
2018-09-17T14:57:10.570Z,25.00
2018-09-17T14:59:13.598Z,24.50
2018-09-17T15:01:16.668Z,24.70
2018-09-17T15:03:19.724Z,24.50
2018-09-17T15:05:22.885Z,25.50
2018-09-17T15:07:26.028Z,24.70
2018-09-17T15:09:29.216Z,24.60
2018-09-17T15:11:32.393Z,24.40
2018-09-17T15:13:35.642Z,24.00
2018-09-17T15:15:50.511Z,25.60
2018-09-17T15:17:53.735Z,26.70
2018-09-17T15:19:56.973Z,25.80
2018-09-17T15:22:00.116Z,24.70
2018-09-17T15:24:03.246Z,25.30
2018-09-17T15:26:06.455Z,24.80
2018-09-17T15:28:10.819Z,25.40
2018-09-17T15:30:13.982Z,25.20
2018-09-17T15:32:18.207Z,24.00
2018-09-17T15:34:21.554Z,24.40
2018-09-17T15:36:24.884Z,24.20
2018-09-17T15:38:29.167Z,24.10
2018-09-17T15:40:32.286Z,24.70
2018-09-17T15:42:35.277Z,25.00
2018-09-17T15:44:40.381Z,24.60
2018-09-17T15:46:43.683Z,25.10
2018-09-17T15:48:46.887Z,25.10
2018-09-17T15:50:49.915Z,24.00
2018-09-17T15:52:53.057Z,25.30
2018-09-17T15:54:56.249Z,24.70
2018-09-17T15:56:59.407Z,25.50
2018-09-17T15:59:02.538Z,24.80
2018-09-17T16:01:06.648Z,24.90
2018-09-17T16:03:09.895Z,25.40
2018-09-17T16:05:12.950Z,25.70
2018-09-17T16:07:16.000Z,26.30
2018-09-17T16:09:19.063Z,27.50
2018-09-17T16:11:22.203Z,27.00
2018-09-17T16:13:25.529Z,27.80
2018-09-17T16:15:28.712Z,28.80
2018-09-17T16:17:32.135Z,28.30
2018-09-17T16:19:35.239Z,28.40
2018-09-17T16:21:39.402Z,28.00
2018-09-17T16:23:42.462Z,29.20
2018-09-17T16:25:45.845Z,29.80
2018-09-17T16:27:49.099Z,29.90
2018-09-17T16:29:52.243Z,29.90
2018-09-17T16:31:55.295Z,30.20
2018-09-17T16:33:58.374Z,29.90
2018-09-17T16:36:01.572Z,30.30
2018-09-17T16:38:04.801Z,30.50
2018-09-17T16:40:09.710Z,30.60
2018-09-17T16:42:12.756Z,30.20
2018-09-17T16:44:15.845Z,29.10
2018-09-17T16:46:18.949Z,29.50
2018-09-17T16:48:22.066Z,30.00
2018-09-17T16:50:25.086Z,30.30
2018-09-17T16:52:28.113Z,30.60
2018-09-17T16:54:31.124Z,30.50
2018-09-17T16:56:34.187Z,31.50
2018-09-17T16:58:38.385Z,30.70
2018-09-17T17:00:41.411Z,31.20
2018-09-17T17:02:44.446Z,31.60
2018-09-17T17:04:47.573Z,31.50
2018-09-17T17:06:50.675Z,30.60
2018-09-17T17:08:53.860Z,31.70
2018-09-17T17:10:57.180Z,32.40
2018-09-17T17:13:00.249Z,32.30
2018-09-17T17:15:03.483Z,32.20
2018-09-17T17:17:06.511Z,32.40
2018-09-17T17:19:11.239Z,32.90
2018-09-17T17:21:14.273Z,33.50
2018-09-17T17:23:17.246Z,33.40
2018-09-17T17:25:20.266Z,34.20
2018-09-17T17:27:23.347Z,33.70
2018-09-17T17:29:32.124Z,34.50
2018-09-17T17:31:35.259Z,34.60
2018-09-17T17:33:39.814Z,34.80
2018-09-17T17:35:43.441Z,35.00
2018-09-17T17:37:46.582Z,35.10
2018-09-17T17:39:49.846Z,35.40
2018-09-17T17:41:52.982Z,35.60
2018-09-17T17:43:56.097Z,36.30
2018-09-17T17:45:59.132Z,36.30
2018-09-17T17:48:02.704Z,36.20
2018-09-17T17:50:05.833Z,36.00
2018-09-17T17:52:10.123Z,35.90
2018-09-17T17:54:13.521Z,36.20
2018-09-17T17:56:16.690Z,36.70
2018-09-17T17:58:19.790Z,36.20
2018-09-17T18:00:22.849Z,37.30
2018-09-17T18:02:25.923Z,38.10
2018-09-17T18:04:28.929Z,38.10
2018-09-17T18:06:32.037Z,38.60
2018-09-17T18:08:35.220Z,38.50
2018-09-17T18:10:39.757Z,38.50
2018-09-17T18:12:43.001Z,37.80
2018-09-17T18:14:46.277Z,37.40
2018-09-17T18:16:49.298Z,38.00
2018-09-17T18:18:52.542Z,38.10
2018-09-17T18:20:55.698Z,38.70
2018-09-17T18:22:58.656Z,39.20
2018-09-17T18:25:01.757Z,38.90
2018-09-17T18:29:17.811Z,38.40
2018-09-17T18:31:20.907Z,39.40
2018-09-17T18:33:23.910Z,38.80
2018-09-17T18:35:27.238Z,39.60
2018-09-17T18:37:30.236Z,39.10
2018-09-17T18:39:33.496Z,38.90
2018-09-17T18:41:36.464Z,40.20
2018-09-17T18:43:41.585Z,40.00
2018-09-17T18:45:44.643Z,40.40
2018-09-17T18:47:47.817Z,40.60
2018-09-17T18:49:50.922Z,40.50
2018-09-17T18:51:53.974Z,40.70
2018-09-17T18:53:57.122Z,41.20
2018-09-17T18:56:00.465Z,41.90
2018-09-17T18:58:03.638Z,41.30
2018-09-17T19:00:09.532Z,41.90
2018-09-17T19:02:13.076Z,42.50
2018-09-17T19:04:16.183Z,41.60
2018-09-17T19:06:19.298Z,42.30
2018-09-17T19:08:22.428Z,42.50
2018-09-17T19:10:25.470Z,42.90
2018-09-17T19:12:28.688Z,42.60
2018-09-17T19:14:38.865Z,42.40
2018-09-17T19:16:47.891Z,43.00
2018-09-17T19:18:50.888Z,42.70
2018-09-17T19:20:54.290Z,43.10
2018-09-17T19:23:03.024Z,43.10
2018-09-17T19:25:06.205Z,42.70
2018-09-17T19:27:10.516Z,43.50
2018-09-17T19:29:15.863Z,43.10
2018-09-17T19:31:19.304Z,43.00
2018-09-17T19:33:22.371Z,43.00
2018-09-17T19:35:25.588Z,43.30
2018-09-17T19:37:34.644Z,43.70
2018-09-17T19:39:43.605Z,43.40
2018-09-17T19:41:46.834Z,43.30
2018-09-17T19:43:50.059Z,43.10
2018-09-17T19:45:58.855Z,43.60
2018-09-17T19:48:02.090Z,44.50
2018-09-17T19:50:09.862Z,44.40
2018-09-17T19:52:17.312Z,44.50
2018-09-17T19:54:20.304Z,44.10
2018-09-17T19:56:23.353Z,44.40
2018-09-17T19:58:32.123Z,44.10
2018-09-17T20:00:35.206Z,45.90
2018-09-17T20:02:39.728Z,44.70
2018-09-17T20:04:48.801Z,44.30
2018-09-17T20:06:51.926Z,45.30
2018-09-17T20:08:55.257Z,45.70
2018-09-17T20:11:00.415Z,45.20
2018-09-17T20:13:09.035Z,46.10
2018-09-17T20:15:12.578Z,45.50
2018-09-17T20:17:15.800Z,46.00
2018-09-17T20:19:18.779Z,46.50
2018-09-17T20:21:21.935Z,46.90
2018-09-17T20:23:24.998Z,46.60
2018-09-17T20:25:28.146Z,47.50
2018-09-17T20:27:31.332Z,46.90
2018-09-17T20:29:34.385Z,47.30
2018-09-17T20:31:38.113Z,47.80
2018-09-17T20:33:41.282Z,48.00
2018-09-17T20:35:44.388Z,46.60
2018-09-17T20:37:47.911Z,47.00
2018-09-17T20:39:50.920Z,47.90
2018-09-17T20:41:54.015Z,47.70
2018-09-17T20:43:57.197Z,48.00
2018-09-17T20:46:00.253Z,47.90
2018-09-17T20:48:03.382Z,47.90
2018-09-17T20:50:06.501Z,48.20
2018-09-17T20:52:11.044Z,49.40
2018-09-17T20:54:14.536Z,49.70
2018-09-17T20:56:17.615Z,50.20
2018-09-17T20:58:20.738Z,49.70
2018-09-17T21:00:23.897Z,50.90
2018-09-17T21:02:26.925Z,51.30
2018-09-17T21:04:30.003Z,50.90
2018-09-17T21:06:33.205Z,50.50
2018-09-17T21:26:22.520Z,50.40
2018-09-17T22:14:12.961Z,56.00
2018-09-17T22:16:15.998Z,53.70
2018-09-17T22:18:19.087Z,53.60
2018-09-17T22:20:22.139Z,55.30
2018-09-17T22:22:25.177Z,55.50
2018-09-17T22:24:28.270Z,55.60
2018-09-17T22:26:31.334Z,55.30
2018-09-17T22:28:34.545Z,55.20
2018-09-17T22:30:38.177Z,55.60
2018-09-17T22:32:41.212Z,54.70
2018-09-17T22:34:44.298Z,54.00
2018-09-17T22:36:47.411Z,54.20
2018-09-17T22:38:50.481Z,54.60
2018-09-17T22:40:53.805Z,54.10
2018-09-17T22:42:56.931Z,53.80
2018-09-17T22:45:00.206Z,53.90
2018-09-17T22:47:03.306Z,54.80
2018-09-17T22:49:06.905Z,54.20
2018-09-17T22:51:10.904Z,54.00
2018-09-17T22:53:14.327Z,54.90
2018-09-17T22:55:17.374Z,54.00
2018-09-17T22:57:20.478Z,54.70
2018-09-17T22:59:23.514Z,54.50
2018-09-17T23:01:26.852Z,55.80
2018-09-17T23:03:29.833Z,54.20
2018-09-17T23:05:33.066Z,54.70
2018-09-17T23:07:36.190Z,54.70
2018-09-17T23:09:40.770Z,55.60
2018-09-17T23:11:43.778Z,55.00
2018-09-17T23:13:47.143Z,54.80
2018-09-17T23:15:50.159Z,54.70
2018-09-17T23:17:53.160Z,55.60
2018-09-17T23:19:56.179Z,55.40
2018-09-17T23:21:59.206Z,56.10
2018-09-17T23:24:02.216Z,55.10
2018-09-17T23:26:05.280Z,56.30
2018-09-17T23:28:10.202Z,55.70
2018-09-17T23:30:13.258Z,56.00
2018-09-17T23:32:16.306Z,56.10
2018-09-17T23:34:19.329Z,56.70
2018-09-17T23:36:22.364Z,56.40
2018-09-17T23:38:25.399Z,55.80
2018-09-17T23:40:28.393Z,55.40
2018-09-17T23:42:31.410Z,56.80
2018-09-17T23:44:34.544Z,56.00
2018-09-17T23:46:39.297Z,56.90
2018-09-17T23:48:42.326Z,55.80
2018-09-17T23:50:45.446Z,57.60
2018-09-17T23:52:48.608Z,57.00
2018-09-17T23:54:51.650Z,56.30
2018-09-17T23:56:54.630Z,57.20
2018-09-17T23:58:57.662Z,56.20
